Time;durP1;ratioP1;P1;durP2;ratioP2;P2;SDS_P1;SDS_P2;PMS_P1;PMS_P2;Temp;Humidity;BMP_temperature;BMP_pressure;BME280_temperature;BME280_humidity;BME280_pressure;Samples;Min_cycle;Max_cycle;Signal;HPM_P1;HPM_P2
2022/10/04 00:00:40;;;;;;;8.45;4.43;;;;;;;;;;4995009;28;20058;-79
2022/10/04 00:03:35;;;;;;;10.00;4.35;;;;;;;;;;4986848;28;20046;-80
2022/10/04 00:06:26;;;;;;;9.50;4.78;;;;;;;;;;5001100;28;20042;-79
2022/10/04 00:09:24;;;;;;;8.23;4.65;;;;;;;;;;4986859;28;20050;-79
2022/10/04 00:12:28;;;;;;;8.32;4.93;;;;;;;;;;5001156;28;20046;-80
2022/10/04 00:15:27;;;;;;;9.95;4.88;;;;;;;;;;4995039;28;20393;-79
2022/10/04 00:18:27;;;;;;;14.80;5.30;;;;;;;;;;4995935;28;20050;-80
2022/10/04 00:21:12;;;;;;;9.20;5.38;;;;;;;;;;4996496;28;20042;-78
2022/10/04 00:24:09;;;;;;;8.98;5.45;;;;;;;;;;4996985;28;20058;-78
2022/10/04 00:27:24;;;;;;;11.50;4.78;;;;;;;;;;5002873;28;20042;-79
2022/10/04 00:30:24;;;;;;;9.18;5.10;;;;;;;;;;4996369;28;20480;-79
2022/10/04 00:33:32;;;;;;;9.57;4.05;;;;;;;;;;4996182;28;20046;-80
2022/10/04 00:36:24;;;;;;;8.20;4.18;;;;;;;;;;5001413;28;20038;-80
2022/10/04 00:39:10;;;;;;;6.53;4.07;;;;;;;;;;4994856;28;20409;-80
2022/10/04 00:42:20;;;;;;;6.60;3.58;;;;;;;;;;4994308;28;20046;-79
2022/10/04 00:45:18;;;;;;;10.23;4.35;;;;;;;;;;4990718;28;20042;-79
2022/10/04 00:48:03;;;;;;;9.85;3.83;;;;;;;;;;4994448;28;20063;-80
2022/10/04 00:50:59;;;;;;;7.45;3.75;;;;;;;;;;4997810;28;20474;-80
2022/10/04 00:53:47;;;;;;;8.50;3.58;;;;;;;;;;5012359;28;20046;-80
2022/10/04 00:56:48;;;;;;;5.97;3.55;;;;;;;;;;5015960;28;20039;-79
2022/10/04 00:59:41;;;;;;;6.30;3.38;;;;;;;;;;5015275;28;20050;-80
2022/10/04 01:02:43;;;;;;;6.43;3.08;;;;;;;;;;5013400;28;20046;-79
2022/10/04 01:05:52;;;;;;;6.95;3.20;;;;;;;;;;5012495;28;20046;-79
2022/10/04 01:08:45;;;;;;;6.18;2.60;;;;;;;;;;5012448;28;20042;-79
2022/10/04 01:11:40;;;;;;;6.50;3.10;;;;;;;;;;5015104;28;20042;-79
2022/10/04 01:14:35;;;;;;;7.20;2.83;;;;;;;;;;5013758;28;20046;-79
2022/10/04 01:17:21;;;;;;;3.47;2.35;;;;;;;;;;5020107;28;20038;-79
2022/10/04 01:20:32;;;;;;;6.18;2.80;;;;;;;;;;5004896;28;20046;-79
2022/10/04 01:23:32;;;;;;;4.40;2.22;;;;;;;;;;4982846;28;20038;-80
2022/10/04 01:26:33;;;;;;;6.03;2.50;;;;;;;;;;5016198;28;20054;-80
2022/10/04 01:29:28;;;;;;;4.00;2.40;;;;;;;;;;5013860;28;20034;-80
2022/10/04 01:32:14;;;;;;;6.20;2.60;;;;;;;;;;5004310;28;20043;-79
2022/10/04 01:34:59;;;;;;;4.30;2.10;;;;;;;;;;5001745;28;20046;-80
2022/10/04 01:37:44;;;;;;;8.75;2.10;;;;;;;;;;5019697;28;20042;-79
2022/10/04 01:40:30;;;;;;;8.07;2.25;;;;;;;;;;5013999;28;20042;-79
2022/10/04 01:43:23;;;;;;;10.23;2.20;;;;;;;;;;5012108;28;20058;-79
2022/10/04 01:46:15;;;;;;;5.20;2.13;;;;;;;;;;5013882;28;20046;-80
2022/10/04 01:49:12;;;;;;;4.07;2.20;;;;;;;;;;5011595;28;20038;-79
2022/10/04 01:52:21;;;;;;;4.40;2.40;;;;;;;;;;4999417;28;20039;-79
2022/10/04 01:55:13;;;;;;;3.60;2.00;;;;;;;;;;5009273;28;20043;-79
2022/10/04 01:58:17;;;;;;;26.52;12.05;;;;;;;;;;5022893;28;20054;-80
2022/10/04 02:01:14;;;;;;;23.15;10.45;;;;;;;;;;5027567;28;20041;-79
2022/10/04 02:04:11;;;;;;;19.30;10.07;;;;;;;;;;5031971;28;20042;-79
2022/10/04 02:06:59;;;;;;;42.92;20.15;;;;;;;;;;5029588;28;20046;-78
2022/10/04 02:09:48;;;;;;;306.30;163.13;;;;;;;;;;5030075;28;20150;-79
2022/10/04 02:12:34;;;;;;;172.57;104.80;;;;;;;;;;5038720;28;20038;-79
2022/10/04 02:15:25;;;;;;;5.03;3.30;;;;;;;;;;5030434;28;20058;-79
2022/10/04 02:18:12;;;;;;;5.07;2.05;;;;;;;;;;5037454;28;20038;-78
2022/10/04 02:20:58;;;;;;;14.25;7.22;;;;;;;;;;5029963;28;20045;-78
2022/10/04 02:23:44;;;;;;;6.50;3.22;;;;;;;;;;5025858;28;20037;-79
2022/10/04 02:26:29;;;;;;;7.47;2.70;;;;;;;;;;5025709;28;20050;-79
2022/10/04 02:29:16;;;;;;;7.13;2.83;;;;;;;;;;5025159;28;20041;-78
2022/10/04 02:35:11;;;;;;;5.95;4.47;;;;;;;;;;5025267;28;20042;-79
2022/10/04 02:38:30;;;;;;;8.00;2.50;;;;;;;;;;5033322;28;20062;-79
2022/10/04 02:41:42;;;;;;;10.27;2.60;;;;;;;;;;5026138;28;20403;-78
2022/10/04 02:44:48;;;;;;;4.68;2.80;;;;;;;;;;5025730;28;20049;-79
2022/10/04 02:47:45;;;;;;;7.97;2.78;;;;;;;;;;5013823;28;20034;-79
2022/10/04 02:50:44;;;;;;;4.30;2.38;;;;;;;;;;5019892;28;20392;-79
2022/10/04 02:53:51;;;;;;;3.47;1.73;;;;;;;;;;5015845;28;20034;-80
2022/10/04 02:56:38;;;;;;;2.70;1.67;;;;;;;;;;5015015;28;20046;-79
2022/10/04 02:59:25;;;;;;;2.28;1.27;;;;;;;;;;5022851;28;20041;-80
2022/10/04 03:02:24;;;;;;;3.42;1.42;;;;;;;;;;5014739;28;20038;-80
2022/10/04 03:05:13;;;;;;;3.42;1.38;;;;;;;;;;5015367;28;20387;-80
2022/10/04 03:08:00;;;;;;;3.10;1.40;;;;;;;;;;5022223;28;20042;-80
2022/10/04 03:10:46;;;;;;;3.15;1.40;;;;;;;;;;5014879;28;20037;-80
2022/10/04 03:13:33;;;;;;;3.45;1.48;;;;;;;;;;5022307;28;20387;-80
2022/10/04 03:16:20;;;;;;;1.73;1.30;;;;;;;;;;5014591;28;20045;-80
2022/10/04 03:19:06;;;;;;;3.25;1.38;;;;;;;;;;5015184;28;20487;-80
2022/10/04 03:21:58;;;;;;;21.35;14.35;;;;;;;;;;5014787;28;20038;-80
2022/10/04 03:24:50;;;;;;;2.78;1.48;;;;;;;;;;5014550;28;20483;-80
2022/10/04 03:27:38;;;;;;;3.95;1.83;;;;;;;;;;5000228;28;20407;-80
2022/10/04 03:30:24;;;;;;;4.22;1.88;;;;;;;;;;5014752;28;20487;-80
2022/10/04 03:33:19;;;;;;;2.83;1.63;;;;;;;;;;5014855;28;20034;-80
2022/10/04 03:36:06;;;;;;;5.65;2.65;;;;;;;;;;5014632;28;20403;-80
2022/10/04 03:38:54;;;;;;;5.40;2.47;;;;;;;;;;5000407;28;20050;-80
2022/10/04 03:41:41;;;;;;;5.72;2.38;;;;;;;;;;5021374;28;20042;-80
2022/10/04 03:44:26;;;;;;;7.45;3.92;;;;;;;;;;5015071;28;20046;-80
2022/10/04 03:47:20;;;;;;;5.25;3.50;;;;;;;;;;5021228;28;20479;-80
2022/10/04 03:50:23;;;;;;;4.80;3.60;;;;;;;;;;5015280;28;20042;-80
2022/10/04 03:53:23;;;;;;;4.57;2.30;;;;;;;;;;5014160;28;20045;-79
2022/10/04 03:56:13;;;;;;;3.85;1.80;;;;;;;;;;5014211;28;20041;-81
2022/10/04 03:59:05;;;;;;;3.90;2.08;;;;;;;;;;5014391;28;20045;-79
2022/10/04 04:01:59;;;;;;;7.95;2.00;;;;;;;;;;5014855;28;20038;-80
2022/10/04 04:05:15;;;;;;;6.13;2.42;;;;;;;;;;5015507;28;20046;-80
2022/10/04 04:08:19;;;;;;;7.00;2.90;;;;;;;;;;5007422;28;20045;-80
2022/10/04 04:11:10;;;;;;;5.50;2.85;;;;;;;;;;5006927;28;20395;-80
2022/10/04 04:14:13;;;;;;;12.32;3.83;;;;;;;;;;5014495;28;20046;-80
2022/10/04 04:17:24;;;;;;;12.23;2.95;;;;;;;;;;5020689;28;20484;-79
2022/10/04 04:20:22;;;;;;;8.15;3.22;;;;;;;;;;5013481;28;20038;-80
2022/10/04 04:23:14;;;;;;;5.55;3.25;;;;;;;;;;5020652;28;20508;-79
2022/10/04 04:26:16;;;;;;;5.97;2.25;;;;;;;;;;5017094;28;20491;-80
2022/10/04 04:29:15;;;;;;;5.60;2.97;;;;;;;;;;5018210;28;20041;-79
2022/10/04 04:32:10;;;;;;;7.95;3.00;;;;;;;;;;5024511;28;20038;-80
2022/10/04 04:35:07;;;;;;;12.15;3.15;;;;;;;;;;5018186;28;20054;-80
2022/10/04 04:38:03;;;;;;;7.50;3.33;;;;;;;;;;5024816;28;20045;-79
2022/10/04 04:40:49;;;;;;;6.85;3.30;;;;;;;;;;5019872;28;20046;-80
2022/10/04 04:43:34;;;;;;;8.95;3.53;;;;;;;;;;5019791;28;20042;-80
2022/10/04 04:46:21;;;;;;;6.25;3.22;;;;;;;;;;5026651;28;20046;-82
2022/10/04 04:49:11;;;;;;;4.30;2.50;;;;;;;;;;5020512;28;20387;-84
2022/10/04 04:51:57;;;;;;;8.10;2.92;;;;;;;;;;4999532;28;20038;-81
2022/10/04 04:54:45;;;;;;;8.75;3.03;;;;;;;;;;5020109;28;20046;-80
2022/10/04 04:57:32;;;;;;;10.80;2.80;;;;;;;;;;5024254;28;20053;-81
2022/10/04 05:00:22;;;;;;;9.63;3.22;;;;;;;;;;5017768;28;20038;-81
2022/10/04 05:03:18;;;;;;;5.32;2.70;;;;;;;;;;5016877;28;20045;-81
2022/10/04 05:06:20;;;;;;;5.05;3.00;;;;;;;;;;5017926;28;20403;-81
2022/10/04 05:09:25;;;;;;;7.03;3.53;;;;;;;;;;5024570;28;20049;-80
2022/10/04 05:12:15;;;;;;;8.80;4.40;;;;;;;;;;5017421;28;20034;-81
2022/10/04 05:15:01;;;;;;;8.75;3.90;;;;;;;;;;5024236;28;20050;-81
2022/10/04 05:17:46;;;;;;;3.03;1.85;;;;;;;;;;5024288;28;20390;-81
2022/10/04 05:20:33;;;;;;;6.82;3.08;;;;;;;;;;5024614;28;20395;-81
2022/10/04 05:23:19;;;;;;;8.77;3.10;;;;;;;;;;5018488;28;20455;-80
2022/10/04 05:26:10;;;;;;;10.85;4.30;;;;;;;;;;5023840;28;20042;-80
2022/10/04 05:29:00;;;;;;;7.70;3.10;;;;;;;;;;5017115;28;20483;-82
2022/10/04 05:32:20;;;;;;;8.90;3.85;;;;;;;;;;5016478;28;20033;-80
2022/10/04 05:35:17;;;;;;;19.15;12.45;;;;;;;;;;5016856;28;20487;-80
2022/10/04 05:38:22;;;;;;;9.20;5.65;;;;;;;;;;5015845;28;20038;-79
2022/10/04 05:41:10;;;;;;;;;;;;;;;;;;5016955;28;20042;-79
2022/10/04 05:43:55;;;;;;;15.93;5.05;;;;;;;;;;5016568;28;19917;-79
2022/10/04 05:46:42;;;;;;;10.73;4.15;;;;;;;;;;5016414;28;20395;-80
2022/10/04 05:49:35;;;;;;;6.05;3.78;;;;;;;;;;5016362;28;20049;-81
2022/10/04 05:52:33;;;;;;;6.43;3.63;;;;;;;;;;5016643;28;20030;-80
2022/10/04 05:55:50;;;;;;;6.75;3.30;;;;;;;;;;5023179;28;20387;-80
2022/10/04 05:58:40;;;;;;;6.75;3.67;;;;;;;;;;4958331;28;20046;-80
2022/10/04 06:01:41;;;;;;;3.90;2.03;;;;;;;;;;5023049;28;20042;-79
2022/10/04 06:04:46;;;;;;;7.85;2.90;;;;;;;;;;5016496;28;20050;-80
2022/10/04 06:07:53;;;;;;;7.03;3.55;;;;;;;;;;5016344;28;20419;-81
2022/10/04 06:10:53;;;;;;;6.97;3.47;;;;;;;;;;5016873;28;20038;-80
2022/10/04 06:14:13;;;;;;;8.25;3.20;;;;;;;;;;5001693;28;20387;-79
2022/10/04 06:17:13;;;;;;;9.10;2.75;;;;;;;;;;4995984;28;20049;-81
2022/10/04 06:20:25;;;;;;;3.72;2.50;;;;;;;;;;5016408;28;20037;-80
2022/10/04 06:23:18;;;;;;;8.95;2.05;;;;;;;;;;5016088;28;20038;-82
2022/10/04 06:26:17;;;;;;;6.57;2.97;;;;;;;;;;5016300;28;20041;-81
2022/10/04 06:29:09;;;;;;;9.20;3.67;;;;;;;;;;5016129;28;20034;-81
2022/10/04 06:32:11;;;;;;;9.55;3.33;;;;;;;;;;5022849;28;20037;-81
2022/10/04 06:35:24;;;;;;;6.82;2.80;;;;;;;;;;5003374;28;20046;-82
2022/10/04 06:38:19;;;;;;;3.22;1.50;;;;;;;;;;5016274;28;20042;-82
2022/10/04 06:41:11;;;;;;;9.30;3.30;;;;;;;;;;5016500;28;20038;-80
2022/10/04 06:44:01;;;;;;;6.10;3.33;;;;;;;;;;5021848;28;20050;-81
2022/10/04 06:47:00;;;;;;;10.25;3.20;;;;;;;;;;5015254;28;20050;-81
2022/10/04 06:49:48;;;;;;;3.13;1.75;;;;;;;;;;5015915;28;20080;-82
2022/10/04 06:52:46;;;;;;;5.63;2.80;;;;;;;;;;5007192;28;20391;-81
2022/10/04 06:55:52;;;;;;;12.85;4.57;;;;;;;;;;5022606;28;20046;-81
2022/10/04 06:59:01;;;;;;;7.80;2.13;;;;;;;;;;5015994;28;20050;-81
2022/10/04 07:01:56;;;;;;;7.78;2.70;;;;;;;;;;5022026;28;20049;-80
2022/10/04 07:04:57;;;;;;;3.20;1.75;;;;;;;;;;5015285;28;20041;-80
2022/10/04 07:07:48;;;;;;;12.10;2.50;;;;;;;;;;5021522;28;20041;-81
2022/10/04 07:10:54;;;;;;;5.95;2.40;;;;;;;;;;5015046;28;20045;-80
2022/10/04 07:13:43;;;;;;;;;;;;;;;;;;5015420;28;20038;-81
2022/10/04 07:16:30;;;;;;;6.20;2.00;;;;;;;;;;5013567;28;20252;-81
2022/10/04 07:19:18;;;;;;;5.15;2.22;;;;;;;;;;5014079;28;20049;-80
2022/10/04 07:22:09;;;;;;;9.07;2.38;;;;;;;;;;5000222;28;20503;-80
2022/10/04 07:25:05;;;;;;;4.78;2.10;;;;;;;;;;5000340;28;20388;-81
2022/10/04 07:31:05;;;;;;;5.90;2.92;;;;;;;;;;5015127;28;20042;-80
2022/10/04 07:33:57;;;;;;;7.60;2.70;;;;;;;;;;5014642;28;20483;-82
2022/10/04 07:37:15;;;;;;;6.65;2.55;;;;;;;;;;5015699;28;20046;-80
2022/10/04 07:40:16;;;;;;;2.88;1.63;;;;;;;;;;5021435;28;20479;-77
2022/10/04 07:43:13;;;;;;;4.47;1.80;;;;;;;;;;5020527;28;20045;-77
2022/10/04 07:46:30;;;;;;;6.80;2.17;;;;;;;;;;5014945;28;20034;-78
2022/10/04 07:49:19;;;;;;;8.75;2.85;;;;;;;;;;5014591;28;20049;-77
2022/10/04 07:52:24;;;;;;;3.58;1.70;;;;;;;;;;5021656;28;20045;-78
2022/10/04 07:55:31;;;;;;;5.60;1.88;;;;;;;;;;5013991;28;20046;-77
2022/10/04 07:59:09;;;;;;;4.78;2.40;;;;;;;;;;4999336;28;20038;-77
2022/10/04 08:02:36;;;;;;;3.38;1.75;;;;;;;;;;4943950;28;20056;-77
2022/10/04 08:05:36;;;;;;;5.40;2.75;;;;;;;;;;5014729;28;20046;-77
2022/10/04 08:08:44;;;;;;;7.63;3.83;;;;;;;;;;5014288;28;20046;-77
2022/10/04 08:12:28;;;;;;;7.70;4.30;;;;;;;;;;5014395;28;20033;-76
2022/10/04 08:15:13;;;;;;;7.45;2.78;;;;;;;;;;4935149;29;20564;-77
2022/10/04 08:18:08;;;;;;;9.95;3.85;;;;;;;;;;4934582;29;20047;-77
2022/10/04 08:21:00;;;;;;;5.55;2.60;;;;;;;;;;5014580;28;20400;-77
2022/10/04 08:24:16;;;;;;;3.38;1.65;;;;;;;;;;5013716;28;20037;-77
2022/10/04 08:27:24;;;;;;;83.88;42.30;;;;;;;;;;5019179;28;20045;-77
2022/10/04 08:30:14;;;;;;;86.18;39.50;;;;;;;;;;5020049;28;20045;-78
2022/10/04 08:33:51;;;;;;;115.40;57.65;;;;;;;;;;5018995;28;20041;-78
2022/10/04 08:37:02;;;;;;;149.23;82.50;;;;;;;;;;4997041;28;20042;-77
2022/10/04 08:40:34;;;;;;;106.00;55.63;;;;;;;;;;5026612;28;20045;-77
2022/10/04 08:43:37;;;;;;;18.95;11.93;;;;;;;;;;4997640;28;20034;-75
2022/10/04 08:46:44;;;;;;;7.55;2.75;;;;;;;;;;5025364;28;20046;-77
2022/10/04 08:49:56;;;;;;;5.53;2.03;;;;;;;;;;5020147;28;20391;-79
2022/10/04 08:53:07;;;;;;;5.38;2.40;;;;;;;;;;5022797;28;20054;-80
2022/10/04 08:56:09;;;;;;;8.18;2.50;;;;;;;;;;5025817;28;20042;-82
2022/10/04 08:59:32;;;;;;;5.75;2.20;;;;;;;;;;5022548;28;20054;-83
2022/10/04 09:02:33;;;;;;;2.35;1.65;;;;;;;;;;5008906;28;20467;-81
2022/10/04 09:05:40;;;;;;;7.38;2.65;;;;;;;;;;5020257;28;20049;-79
2022/10/04 09:08:58;;;;;;;11.82;2.58;;;;;;;;;;5020755;28;20042;-78
2022/10/04 09:11:59;;;;;;;6.55;2.38;;;;;;;;;;4993850;28;20042;-82
2022/10/04 09:15:02;;;;;;;8.38;2.92;;;;;;;;;;5017561;28;20041;-79
2022/10/04 09:18:20;;;;;;;2.47;1.27;;;;;;;;;;5019722;28;20434;-78
2022/10/04 09:21:13;;;;;;;6.22;2.13;;;;;;;;;;5023386;28;20042;-77
2022/10/04 09:24:43;;;;;;;1.38;0.93;;;;;;;;;;5023984;28;20399;-78
2022/10/04 09:27:49;;;;;;;1.73;0.90;;;;;;;;;;5023794;28;20050;-77
2022/10/04 09:30:56;;;;;;;1.92;1.30;;;;;;;;;;5024879;28;20045;-78
2022/10/04 09:34:02;;;;;;;4.93;2.30;;;;;;;;;;5016637;28;20483;-79
2022/10/04 09:37:18;;;;;;;5.57;1.80;;;;;;;;;;5023516;28;20418;-79
2022/10/04 09:40:39;;;;;;;3.55;1.95;;;;;;;;;;4995887;28;20038;-79
2022/10/04 09:43:54;;;;;;;7.70;2.80;;;;;;;;;;5020667;28;20046;-78
2022/10/04 09:47:36;;;;;;;8.20;2.85;;;;;;;;;;5020175;28;20045;-79
2022/10/04 09:50:50;;;;;;;3.00;1.88;;;;;;;;;;4963971;28;20046;-79
2022/10/04 09:54:43;;;;;;;1.50;1.10;;;;;;;;;;5016454;28;20042;-78
2022/10/04 09:57:46;;;;;;;2.80;1.10;;;;;;;;;;4947874;28;20050;-79
2022/10/04 10:00:48;;;;;;;4.18;1.52;;;;;;;;;;5016812;28;20046;-79
2022/10/04 10:03:49;;;;;;;10.52;1.63;;;;;;;;;;5016114;28;20399;-78
2022/10/04 10:06:48;;;;;;;5.43;1.90;;;;;;;;;;5016889;28;20392;-78
2022/10/04 10:16:48;;;;;;;2.22;1.50;;;;;;;;;;5016984;28;20041;-78
2022/10/04 10:19:40;;;;;;;2.78;1.50;;;;;;;;;;5016801;28;20034;-78
2022/10/04 10:22:59;;;;;;;4.80;2.33;;;;;;;;;;5015684;28;20042;-79
2022/10/04 10:25:53;;;;;;;3.33;1.58;;;;;;;;;;5016274;28;20041;-79
2022/10/04 10:29:16;;;;;;;3.92;1.73;;;;;;;;;;5016140;28;20053;-78
2022/10/04 10:32:32;;;;;;;5.93;1.75;;;;;;;;;;5015530;28;20034;-78
2022/10/04 10:35:32;;;;;;;4.20;2.08;;;;;;;;;;5023460;28;20351;-78
2022/10/04 10:38:48;;;;;;;3.00;1.55;;;;;;;;;;5022801;28;20045;-78
2022/10/04 10:42:12;;;;;;;4.80;1.52;;;;;;;;;;5022896;28;20041;-78
2022/10/04 10:45:08;;;;;;;5.07;2.35;;;;;;;;;;4982949;28;20046;-79
2022/10/04 10:48:03;;;;;;;7.47;2.63;;;;;;;;;;5015926;28;20041;-78
2022/10/04 10:51:17;;;;;;;3.45;1.33;;;;;;;;;;5022215;28;20038;-78
2022/10/04 10:54:28;;;;;;;4.00;1.85;;;;;;;;;;5021923;28;20050;-78
2022/10/04 10:57:53;;;;;;;5.88;1.70;;;;;;;;;;5001028;28;20049;-78
2022/10/04 11:01:16;;;;;;;2.90;1.38;;;;;;;;;;5016551;28;20049;-78
2022/10/04 11:04:21;;;;;;;3.67;1.50;;;;;;;;;;5015437;28;20038;-79
2022/10/04 11:07:45;;;;;;;2.35;1.15;;;;;;;;;;5015115;28;20046;-78
2022/10/04 11:10:52;;;;;;;8.77;3.88;;;;;;;;;;5015168;28;20037;-79
2022/10/04 11:13:58;;;;;;;5.20;2.10;;;;;;;;;;5021809;28;20029;-78
2022/10/04 11:17:02;;;;;;;3.15;1.40;;;;;;;;;;5015286;28;20049;-78
2022/10/04 11:20:10;;;;;;;3.65;1.90;;;;;;;;;;5021735;28;20050;-79
2022/10/04 11:23:26;;;;;;;4.90;1.98;;;;;;;;;;5014669;28;20038;-78
2022/10/04 11:26:36;;;;;;;6.45;3.03;;;;;;;;;;5015383;28;20050;-78
2022/10/04 11:29:30;;;;;;;6.07;2.20;;;;;;;;;;4999762;28;20046;-78
2022/10/04 11:32:44;;;;;;;2.23;1.10;;;;;;;;;;5015269;28;20053;-78
2022/10/04 11:35:29;;;;;;;4.03;1.48;;;;;;;;;;5020813;28;20415;-78
2022/10/04 11:38:47;;;;;;;2.30;1.45;;;;;;;;;;5014695;28;20045;-79
2022/10/04 11:41:50;;;;;;;7.60;2.38;;;;;;;;;;5013536;28;20041;-80
2022/10/04 11:44:58;;;;;;;5.13;2.03;;;;;;;;;;5014438;28;20050;-80
2022/10/04 11:48:06;;;;;;;3.40;1.85;;;;;;;;;;5015767;28;20042;-79
2022/10/04 11:51:12;;;;;;;5.88;3.00;;;;;;;;;;5021528;28;20487;-80
2022/10/04 11:54:10;;;;;;;3.78;1.95;;;;;;;;;;5014687;28;20038;-78
2022/10/04 11:57:14;;;;;;;4.82;1.85;;;;;;;;;;5013949;28;20053;-80
2022/10/04 12:00:25;;;;;;;3.60;1.47;;;;;;;;;;5020978;28;20037;-76
2022/10/04 12:03:29;;;;;;;4.15;1.10;;;;;;;;;;5014100;28;20299;-81
2022/10/04 12:06:43;;;;;;;4.70;1.80;;;;;;;;;;5021156;28;20049;-79
2022/10/04 12:09:45;;;;;;;2.90;1.55;;;;;;;;;;5014842;28;20046;-78
2022/10/04 12:12:55;;;;;;;2.45;1.63;;;;;;;;;;5014513;28;20041;-80
2022/10/04 12:16:05;;;;;;;3.72;1.70;;;;;;;;;;5015176;28;20046;-80
2022/10/04 12:19:14;;;;;;;2.25;1.40;;;;;;;;;;5013952;28;20038;-79
2022/10/04 12:22:22;;;;;;;3.45;1.73;;;;;;;;;;5014603;28;20050;-80
2022/10/04 12:25:25;;;;;;;4.88;2.47;;;;;;;;;;5014139;28;20400;-81
2022/10/04 12:28:26;;;;;;;1.67;0.88;;;;;;;;;;5014421;28;20046;-80
2022/10/04 12:31:24;;;;;;;7.68;3.78;;;;;;;;;;5005942;28;20045;-81
2022/10/04 12:34:13;;;;;;;3.05;1.73;;;;;;;;;;5020564;28;20593;-80
2022/10/04 12:37:12;;;;;;;5.60;2.25;;;;;;;;;;5014289;28;20058;-81
2022/10/04 12:40:29;;;;;;;10.10;3.42;;;;;;;;;;5013954;28;20041;-81
2022/10/04 12:43:51;;;;;;;4.03;2.13;;;;;;;;;;5005811;28;20401;-79
2022/10/04 12:46:56;;;;;;;5.72;2.28;;;;;;;;;;5003000;28;20050;-79
2022/10/04 12:50:08;;;;;;;4.80;2.33;;;;;;;;;;5017732;28;20037;-80
2022/10/04 12:53:05;;;;;;;3.80;1.80;;;;;;;;;;5017759;28;20383;-79
2022/10/04 12:56:00;;;;;;;7.38;2.55;;;;;;;;;;5017924;28;20041;-80
2022/10/04 12:58:56;;;;;;;5.38;2.83;;;;;;;;;;4986880;28;20050;-79
2022/10/04 13:02:01;;;;;;;7.60;3.30;;;;;;;;;;5005270;28;20042;-81
2022/10/04 13:04:54;;;;;;;2.73;1.57;;;;;;;;;;4999700;28;20051;-80
2022/10/04 13:07:59;;;;;;;2.88;1.40;;;;;;;;;;5016270;28;20042;-79
2022/10/04 13:10:48;;;;;;;5.18;2.30;;;;;;;;;;5017632;28;20483;-79
2022/10/04 13:13:34;;;;;;;4.95;2.40;;;;;;;;;;5015967;28;20026;-79
2022/10/04 13:16:41;;;;;;;6.85;3.35;;;;;;;;;;5015032;28;20042;-79
2022/10/04 13:19:51;;;;;;;7.63;2.83;;;;;;;;;;5022805;28;20022;-79
2022/10/04 13:22:36;;;;;;;5.00;2.15;;;;;;;;;;5016780;28;20050;-79
2022/10/04 13:26:01;;;;;;;5.65;2.47;;;;;;;;;;5017575;28;20062;-79
2022/10/04 13:29:20;;;;;;;5.80;3.20;;;;;;;;;;5017636;28;20050;-80
2022/10/04 13:32:19;;;;;;;7.47;3.38;;;;;;;;;;5016421;28;20046;-80
2022/10/04 13:35:21;;;;;;;10.70;3.85;;;;;;;;;;5016933;28;20046;-80
2022/10/04 13:38:34;;;;;;;9.68;4.60;;;;;;;;;;5016314;28;20038;-79
2022/10/04 13:41:29;;;;;;;9.70;3.80;;;;;;;;;;5017701;28;20038;-79
2022/10/04 13:44:43;;;;;;;11.80;3.30;;;;;;;;;;5013620;28;20046;-79
2022/10/04 13:47:28;;;;;;;5.38;3.13;;;;;;;;;;5016688;28;20035;-79
2022/10/04 13:50:14;;;;;;;8.10;3.72;;;;;;;;;;5020791;28;20038;-79
2022/10/04 13:56:56;;;;;;;6.30;3.17;;;;;;;;;;5014672;28;20039;-80
2022/10/04 14:00:04;;;;;;;10.70;5.43;;;;;;;;;;5035546;28;20053;-79
2022/10/04 14:03:09;;;;;;;11.95;5.47;;;;;;;;;;5039779;28;20038;-80
2022/10/04 14:06:17;;;;;;;19.70;7.88;;;;;;;;;;5025479;28;20050;-83
2022/10/04 14:09:29;;;;;;;9.02;4.45;;;;;;;;;;5016888;28;20049;-78
2022/10/04 14:12:58;;;;;;;8.50;4.60;;;;;;;;;;5008207;28;20484;-77
2022/10/04 14:16:17;;;;;;;20.98;7.30;;;;;;;;;;5018579;28;20041;-77
2022/10/04 14:19:21;;;;;;;10.77;4.90;;;;;;;;;;5023750;28;20399;-79
2022/10/04 14:22:25;;;;;;;14.05;4.78;;;;;;;;;;5026069;28;20045;-78
2022/10/04 14:25:22;;;;;;;15.73;6.68;;;;;;;;;;5021958;28;20487;-78
2022/10/04 14:28:12;;;;;;;14.52;6.47;;;;;;;;;;5023834;28;20050;-78
2022/10/04 14:31:24;;;;;;;12.10;5.82;;;;;;;;;;5021694;28;20050;-79
2022/10/04 14:34:52;;;;;;;13.75;6.47;;;;;;;;;;5023018;28;20042;-78
2022/10/04 14:37:59;;;;;;;9.23;4.43;;;;;;;;;;5031730;28;20046;-78
2022/10/04 14:41:28;;;;;;;13.35;4.65;;;;;;;;;;5031732;28;20068;-77
2022/10/04 14:45:02;;;;;;;7.35;4.10;;;;;;;;;;4983954;28;20039;-78
2022/10/04 14:48:05;;;;;;;10.55;4.15;;;;;;;;;;4904753;29;20048;-77
2022/10/04 14:51:00;;;;;;;8.68;4.25;;;;;;;;;;5019760;28;20479;-78
2022/10/04 14:53:49;;;;;;;11.60;5.22;;;;;;;;;;5018999;28;20042;-77
2022/10/04 14:56:59;;;;;;;18.70;8.50;;;;;;;;;;5025289;28;20045;-77
2022/10/04 15:00:10;;;;;;;13.75;6.90;;;;;;;;;;5025413;28;20057;-78
2022/10/04 15:03:27;;;;;;;19.92;9.10;;;;;;;;;;5019897;28;20054;-79
2022/10/04 15:06:24;;;;;;;25.95;9.43;;;;;;;;;;5019921;28;20042;-78
2022/10/04 15:09:25;;;;;;;20.55;8.48;;;;;;;;;;5024101;28;20487;-79
2022/10/04 15:12:39;;;;;;;15.55;8.25;;;;;;;;;;5017888;28;20075;-80
2022/10/04 15:16:03;;;;;;;17.27;7.78;;;;;;;;;;5006606;28;20038;-78
2022/10/04 15:19:02;;;;;;;18.80;8.20;;;;;;;;;;5015193;28;20045;-78
2022/10/04 15:21:54;;;;;;;16.65;6.93;;;;;;;;;;5015176;28;20041;-78
2022/10/04 15:24:48;;;;;;;17.55;7.07;;;;;;;;;;5014409;28;20479;-78
2022/10/04 15:27:34;;;;;;;12.52;7.47;;;;;;;;;;5014778;28;20042;-78
2022/10/04 15:30:44;;;;;;;15.48;7.07;;;;;;;;;;5014375;28;20407;-78
2022/10/04 15:33:52;;;;;;;16.75;6.63;;;;;;;;;;5014565;28;20387;-77
2022/10/04 15:36:40;;;;;;;14.80;6.78;;;;;;;;;;5020995;28;20046;-77
2022/10/04 15:39:38;;;;;;;14.63;7.63;;;;;;;;;;5021052;28;20041;-77
2022/10/04 15:42:36;;;;;;;13.20;6.97;;;;;;;;;;5021315;28;20046;-77
2022/10/04 15:45:55;;;;;;;16.40;7.57;;;;;;;;;;5013869;28;20053;-78
2022/10/04 15:49:06;;;;;;;14.43;8.40;;;;;;;;;;5020953;28;20053;-79
2022/10/04 15:52:16;;;;;;;21.02;9.70;;;;;;;;;;5020911;28;20487;-78
2022/10/04 15:55:01;;;;;;;19.00;10.45;;;;;;;;;;5014102;28;20073;-78
2022/10/04 15:57:47;;;;;;;28.98;12.50;;;;;;;;;;5013676;28;20411;-78
2022/10/04 16:00:59;;;;;;;25.02;11.35;;;;;;;;;;5014124;28;20045;-77
2022/10/04 16:04:10;;;;;;;32.35;12.90;;;;;;;;;;5014468;28;20037;-79
2022/10/04 16:07:28;;;;;;;29.83;14.15;;;;;;;;;;5013793;28;20041;-77
2022/10/04 16:10:21;;;;;;;30.73;16.02;;;;;;;;;;5013994;28;20038;-77
2022/10/04 16:13:32;;;;;;;41.17;21.65;;;;;;;;;;5013628;28;20479;-78
2022/10/04 16:16:18;;;;;;;37.90;19.30;;;;;;;;;;5020589;28;20042;-77
2022/10/04 16:19:18;;;;;;;43.10;23.95;;;;;;;;;;5020380;28;20049;-79
2022/10/04 16:22:14;;;;;;;56.63;31.10;;;;;;;;;;4999263;28;20042;-80
2022/10/04 16:25:25;;;;;;;48.75;26.25;;;;;;;;;;5005706;28;20042;-81
2022/10/04 16:28:25;;;;;;;54.47;27.13;;;;;;;;;;5013554;28;20049;-80
2022/10/04 16:31:37;;;;;;;58.97;29.83;;;;;;;;;;5013532;28;20050;-81
2022/10/04 16:34:46;;;;;;;70.45;33.65;;;;;;;;;;5013742;28;20041;-80
2022/10/04 16:37:41;;;;;;;54.45;27.27;;;;;;;;;;5012897;28;20045;-81
2022/10/04 16:40:35;;;;;;;49.53;27.00;;;;;;;;;;5012973;28;20041;-79
2022/10/04 16:43:27;;;;;;;53.22;25.70;;;;;;;;;;4999264;28;20042;-79
2022/10/04 16:46:30;;;;;;;42.70;25.83;;;;;;;;;;5020185;28;20050;-79
2022/10/04 16:49:27;;;;;;;47.60;25.60;;;;;;;;;;5020099;28;20046;-78
2022/10/04 16:52:36;;;;;;;47.03;25.73;;;;;;;;;;5020262;28;20050;-78
2022/10/04 16:55:30;;;;;;;50.72;28.08;;;;;;;;;;5013304;28;20050;-78
2022/10/04 16:58:27;;;;;;;64.43;34.15;;;;;;;;;;5013703;28;20483;-78
2022/10/04 17:01:22;;;;;;;58.40;33.42;;;;;;;;;;5013805;28;20507;-79
2022/10/04 17:04:13;;;;;;;66.50;37.05;;;;;;;;;;5012962;28;20038;-80
2022/10/04 17:07:12;;;;;;;72.78;38.97;;;;;;;;;;5020097;28;20046;-79
2022/10/04 17:10:19;;;;;;;150.15;82.63;;;;;;;;;;5019781;28;20041;-79
2022/10/04 17:13:27;;;;;;;75.78;40.67;;;;;;;;;;5019860;28;20050;-79
2022/10/04 17:16:26;;;;;;;73.90;41.53;;;;;;;;;;5012907;28;20045;-79
2022/10/04 17:19:27;;;;;;;73.13;35.88;;;;;;;;;;5013509;28;20049;-79
2022/10/04 17:22:17;;;;;;;66.75;34.97;;;;;;;;;;5021128;28;20049;-77
2022/10/04 17:25:44;;;;;;;70.13;36.83;;;;;;;;;;5013030;28;20038;-79
2022/10/04 17:28:40;;;;;;;95.32;46.67;;;;;;;;;;5013364;28;20395;-78
2022/10/04 17:31:53;;;;;;;97.68;44.72;;;;;;;;;;5005345;28;20439;-78
2022/10/04 17:35:09;;;;;;;97.15;42.70;;;;;;;;;;5016865;28;20034;-78
2022/10/04 17:38:23;;;;;;;112.70;48.25;;;;;;;;;;5022983;28;20403;-79
2022/10/04 17:41:11;;;;;;;99.00;44.33;;;;;;;;;;5016335;28;20045;-77
2022/10/04 17:44:16;;;;;;;101.50;46.10;;;;;;;;;;5016634;28;20046;-78
2022/10/04 17:47:23;;;;;;;115.90;51.38;;;;;;;;;;5016259;28;20050;-77
2022/10/04 17:56:47;;;;;;;65.53;35.00;;;;;;;;;;5022662;28;20399;-78
2022/10/04 17:59:43;;;;;;;59.47;32.60;;;;;;;;;;5016226;28;20411;-76
2022/10/04 18:02:56;;;;;;;49.08;25.98;;;;;;;;;;5016721;28;20061;-79
2022/10/04 18:05:46;;;;;;;45.85;24.00;;;;;;;;;;5022308;28;20038;-79
2022/10/04 18:08:53;;;;;;;43.47;21.08;;;;;;;;;;5016770;28;20431;-79
2022/10/04 18:11:59;;;;;;;37.88;21.17;;;;;;;;;;5022899;28;20038;-80
2022/10/04 18:14:50;;;;;;;55.30;27.98;;;;;;;;;;5016885;28;20041;-79
2022/10/04 18:17:46;;;;;;;46.70;24.80;;;;;;;;;;5016012;28;20041;-79
2022/10/04 18:21:03;;;;;;;53.35;25.17;;;;;;;;;;5022592;28;20057;-79